Time;durP1;ratioP1;P1;durP2;ratioP2;P2;SDS_P1;SDS_P2;PMS_P1;PMS_P2;Temp;Humidity;BMP_temperature;BMP_pressure;BME280_temperature;BME280_humidity;BME280_pressure;Samples;Min_cycle;Max_cycle;Signal;HPM_P1;HPM_P2
2023/11/19 00:05:02;;;;;;;15.4;9.1;;;;;;;2.68;83.97;;;;;
2023/11/19 00:16:04;;;;;;;15.4;9.1;;;;;;;2.68;83.57;;;;;
2023/11/19 00:27:02;;;;;;;19.8;9.1;;;;;;;2.7;83.63;;;;;
2023/11/19 00:38:03;;;;;;;19.8;9.1;;;;;;;2.69;84.16;;;;;
2023/11/19 00:48:02;;;;;;;19.8;9.1;;;;;;;2.68;84.13;;;;;
2023/11/19 00:59:02;;;;;;;19.7;9;;;;;;;2.71;83.79;;;;;
2023/11/19 01:10:02;;;;;;;19.7;9;;;;;;;2.75;83.61;;;;;
2023/11/19 01:21:02;;;;;;;19.7;9;;;;;;;2.64;83.72;;;;;
2023/11/19 01:32:02;;;;;;;14.5;8.3;;;;;;;2.52;83.6;;;;;
2023/11/19 01:42:02;;;;;;;14.5;8.3;;;;;;;2.53;83.58;;;;;
2023/11/19 01:52:02;;;;;;;14.5;8.3;;;;;;;2.71;83.49;;;;;
2023/11/19 02:02:02;;;;;;;17.5;9;;;;;;;2.65;84.2;;;;;
2023/11/19 02:13:05;;;;;;;17.5;9;;;;;;;2.37;84.54;;;;;
2023/11/19 02:23:02;;;;;;;17.5;9;;;;;;;2.66;84.2;;;;;
2023/11/19 02:33:05;;;;;;;20.1;9.8;;;;;;;2.4;85.49;;;;;
2023/11/19 02:44:03;;;;;;;20.1;9.8;;;;;;;2.49;85.19;;;;;
2023/11/19 02:55:02;;;;;;;15.5;8.8;;;;;;;2.53;85.29;;;;;
2023/11/19 03:06:05;;;;;;;15.5;8.8;;;;;;;2.72;84.71;;;;;
2023/11/19 03:16:02;;;;;;;15.5;8.8;;;;;;;2.5;84.51;;;;;
2023/11/19 03:26:03;;;;;;;15.1;8;;;;;;;2.28;85.7;;;;;
2023/11/19 03:37:03;;;;;;;15.1;8;;;;;;;2.28;85.52;;;;;
2023/11/19 03:47:02;;;;;;;15.1;8;;;;;;;2.26;85.45;;;;;
2023/11/19 03:58:02;;;;;;;19.8;10.5;;;;;;;2.01;85.56;;;;;
2023/11/19 04:08:02;;;;;;;19.8;10.5;;;;;;;1.77;85.68;;;;;
2023/11/19 04:18:02;;;;;;;19.8;10.5;;;;;;;1.81;85.8;;;;;
2023/11/19 04:29:02;;;;;;;17.1;9.1;;;;;;;1.75;86.5;;;;;
2023/11/19 04:40:03;;;;;;;17.1;9.1;;;;;;;1.87;85.7;;;;;
2023/11/19 04:51:03;;;;;;;17.1;9.1;;;;;;;1.71;85.16;;;;;
2023/11/19 05:02:03;;;;;;;18;8.7;;;;;;;1.33;85.39;;;;;
2023/11/19 05:13:02;;;;;;;18;8.7;;;;;;;1.15;85.11;;;;;
2023/11/19 05:23:02;;;;;;;18;8.7;;;;;;;0.84;84.92;;;;;
2023/11/19 05:34:02;;;;;;;18.4;10.1;;;;;;;0.42;86.29;;;;;
2023/11/19 05:45:02;;;;;;;18.4;10.1;;;;;;;0.45;86.19;;;;;
2023/11/19 05:55:04;;;;;;;14.8;9.2;;;;;;;0.48;86.59;;;;;
2023/11/19 06:05:02;;;;;;;14.8;9.2;;;;;;;0.46;88.06;;;;;
2023/11/19 06:16:02;;;;;;;14.8;9.2;;;;;;;0.5;88.89;;;;;
2023/11/19 06:27:02;;;;;;;17.5;9.1;;;;;;;0.78;89.04;;;;;
2023/11/19 06:38:03;;;;;;;17.5;9.1;;;;;;;1.04;88.33;;;;;
2023/11/19 06:48:03;;;;;;;17.5;9.1;;;;;;;1.11;88.48;;;;;
2023/11/19 06:59:02;;;;;;;15.6;9.5;;;;;;;1.55;88.8;;;;;
2023/11/19 07:09:09;;;;;;;15.6;9.5;;;;;;;1.58;87.65;;;;;
2023/11/19 07:20:03;;;;;;;15.6;9.5;;;;;;;2.09;88.34;;;;;
2023/11/19 07:30:02;;;;;;;20.3;10.7;;;;;;;2.55;87.06;;;;;
2023/11/19 07:40:03;;;;;;;20.3;10.7;;;;;;;2.86;86.13;;;;;
2023/11/19 07:51:02;;;;;;;20.3;10.7;;;;;;;3.14;84.15;;;;;
2023/11/19 08:02:03;;;;;;;18.4;10;;;;;;;3.29;84.82;;;;;
2023/11/19 08:12:03;;;;;;;18.4;10;;;;;;;3.32;83.57;;;;;
2023/11/19 08:22:02;;;;;;;18.4;10;;;;;;;3.67;82.75;;;;;
2023/11/19 08:33:02;;;;;;;20.2;10.2;;;;;;;4.01;81.1;;;;;
2023/11/19 08:44:02;;;;;;;20.2;10.2;;;;;;;4.28;80.74;;;;;
2023/11/19 08:54:02;;;;;;;15.4;8.7;;;;;;;4.37;77.58;;;;;
2023/11/19 09:04:02;;;;;;;15.4;8.7;;;;;;;4.29;77.08;;;;;
2023/11/19 09:14:02;;;;;;;15.4;8.7;;;;;;;4.39;77.2;;;;;
2023/11/19 09:25:02;;;;;;;14.1;6.5;;;;;;;4.53;76.39;;;;;
2023/11/19 09:35:02;;;;;;;14.1;6.5;;;;;;;4.49;76.47;;;;;
2023/11/19 09:46:05;;;;;;;14.1;6.5;;;;;;;4.68;76.36;;;;;
2023/11/19 09:56:03;;;;;;;25.9;16.3;;;;;;;4.84;74.9;;;;;
2023/11/19 10:07:02;;;;;;;25.9;16.3;;;;;;;5.12;75.33;;;;;
2023/11/19 10:17:04;;;;;;;25.9;16.3;;;;;;;5.48;73.63;;;;;
2023/11/19 10:28:03;;;;;;;13.8;6.9;;;;;;;5.66;72.97;;;;;
2023/11/19 10:38:02;;;;;;;13.8;6.9;;;;;;;5.44;71.98;;;;;
2023/11/19 10:48:04;;;;;;;13.8;6.9;;;;;;;5.97;73.09;;;;;
2023/11/19 10:58:03;;;;;;;15.3;7.9;;;;;;;5.83;72.13;;;;;
2023/11/19 11:09:04;;;;;;;15.3;7.9;;;;;;;5.78;71.99;;;;;
2023/11/19 11:20:02;;;;;;;15.3;7.9;;;;;;;6.11;71.45;;;;;
2023/11/19 11:31:02;;;;;;;12.3;6.6;;;;;;;6.13;71.39;;;;;
2023/11/19 11:41:02;;;;;;;12.3;6.6;;;;;;;5.74;71.21;;;;;
2023/11/19 11:52:04;;;;;;;12.3;6.6;;;;;;;5.58;74.99;;;;;
2023/11/19 12:03:02;;;;;;;10;6.2;;;;;;;5.27;75.43;;;;;
2023/11/19 12:14:03;;;;;;;10;6.2;;;;;;;4.94;78.92;;;;;
2023/11/19 12:25:02;;;;;;;7.9;5;;;;;;;4.86;80.51;;;;;
2023/11/19 12:36:05;;;;;;;7.9;5;;;;;;;4.51;79.56;;;;;
2023/11/19 12:46:03;;;;;;;7.9;5;;;;;;;4.26;81.34;;;;;
2023/11/19 12:57:02;;;;;;;8.3;4.4;;;;;;;3.85;83.18;;;;;
2023/11/19 13:07:04;;;;;;;8.3;4.4;;;;;;;3.98;83.46;;;;;
2023/11/19 13:18:02;;;;;;;8.3;4.4;;;;;;;4.14;82.55;;;;;
2023/11/19 13:29:03;;;;;;;11.7;5.1;;;;;;;3.84;83.67;;;;;
2023/11/19 13:39:02;;;;;;;11.7;5.1;;;;;;;4.13;83.19;;;;;
2023/11/19 13:49:03;;;;;;;11.7;5.1;;;;;;;3.83;85.08;;;;;
2023/11/19 13:59:02;;;;;;;9;4.7;;;;;;;3.95;84.64;;;;;
2023/11/19 14:10:03;;;;;;;9;4.7;;;;;;;4.08;84.4;;;;;
2023/11/19 14:21:03;;;;;;;9;4.7;;;;;;;4;85.52;;;;;
2023/11/19 14:31:02;;;;;;;13.2;8.8;;;;;;;3.94;85.92;;;;;
2023/11/19 14:41:04;;;;;;;13.2;8.8;;;;;;;4.2;85.02;;;;;
2023/11/19 14:51:03;;;;;;;13.2;8.8;;;;;;;4.08;85.43;;;;;
2023/11/19 15:02:02;;;;;;;22.3;10.4;;;;;;;4.18;85.3;;;;;
2023/11/19 15:12:02;;;;;;;22.3;10.4;;;;;;;4.23;85.63;;;;;
2023/11/19 15:22:05;;;;;;;22.3;10.4;;;;;;;4.41;85.39;;;;;
2023/11/19 15:33:02;;;;;;;51.2;27.1;;;;;;;4.59;85.23;;;;;
2023/11/19 15:43:03;;;;;;;51.2;27.1;;;;;;;4.6;85.16;;;;;
2023/11/19 15:53:02;;;;;;;51.2;27.1;;;;;;;4.56;85.81;;;;;
2023/11/19 16:03:03;;;;;;;46.3;28.1;;;;;;;4.67;85.89;;;;;
2023/11/19 16:14:02;;;;;;;46.3;28.1;;;;;;;4.76;85.81;;;;;
2023/11/19 16:24:03;;;;;;;18.1;9.7;;;;;;;4.84;85.71;;;;;
2023/11/19 16:34:04;;;;;;;18.1;9.7;;;;;;;4.92;85.47;;;;;
2023/11/19 16:45:03;;;;;;;18.1;9.7;;;;;;;4.91;85.73;;;;;
2023/11/19 16:55:05;;;;;;;20.9;11.9;;;;;;;4.87;85.7;;;;;
2023/11/19 17:05:03;;;;;;;20.9;11.9;;;;;;;4.91;85.78;;;;;
2023/11/19 17:16:03;;;;;;;20.9;11.9;;;;;;;4.99;86.22;;;;;
2023/11/19 17:27:03;;;;;;;21.5;14.1;;;;;;;5.12;85.87;;;;;
2023/11/19 17:37:03;;;;;;;21.5;14.1;;;;;;;5.13;85.83;;;;;
2023/11/19 17:48:03;;;;;;;21.5;14.1;;;;;;;5.04;85.45;;;;;
2023/11/19 17:58:03;;;;;;;26.3;15.2;;;;;;;4.77;86.36;;;;;
2023/11/19 18:08:04;;;;;;;26.3;15.2;;;;;;;4.77;85.94;;;;;
2023/11/19 18:19:04;;;;;;;26.3;15.2;;;;;;;4.61;87.79;;;;;
2023/11/19 18:29:03;;;;;;;21.6;12.4;;;;;;;4.94;87.57;;;;;
2023/11/19 18:40:02;;;;;;;21.6;12.4;;;;;;;4.85;88.01;;;;;
2023/11/19 18:51:03;;;;;;;21.6;12.4;;;;;;;5.12;87.87;;;;;
2023/11/19 19:01:03;;;;;;;20.6;10.5;;;;;;;5.29;87.76;;;;;
2023/11/19 19:12:03;;;;;;;20.6;10.5;;;;;;;5.54;87.11;;;;;
2023/11/19 19:23:02;;;;;;;6.7;2.8;;;;;;;5.67;86.85;;;;;
2023/11/19 19:33:03;;;;;;;6.7;2.8;;;;;;;5.6;86.23;;;;;
2023/11/19 19:44:03;;;;;;;6.7;2.8;;;;;;;5.49;86.56;;;;;
2023/11/19 19:54:03;;;;;;;5.4;2.7;;;;;;;5.36;86.44;;;;;
2023/11/19 20:04:02;;;;;;;5.4;2.7;;;;;;;5.29;86.6;;;;;
2023/11/19 20:14:03;;;;;;;5.4;2.7;;;;;;;5.31;86.98;;;;;
2023/11/19 20:25:03;;;;;;;6.3;3.3;;;;;;;5.29;86.6;;;;;
2023/11/19 20:36:03;;;;;;;6.3;3.3;;;;;;;5.22;86.61;;;;;
2023/11/19 20:47:04;;;;;;;6.3;3.3;;;;;;;5.32;87.6;;;;;
2023/11/19 20:58:03;;;;;;;6.3;2.9;;;;;;;5.46;87.81;;;;;
2023/11/19 21:08:03;;;;;;;6.3;2.9;;;;;;;5.6;88.08;;;;;
2023/11/19 21:19:03;;;;;;;6.3;2.9;;;;;;;5.79;87.59;;;;;
2023/11/19 21:29:03;;;;;;;6.3;3.2;;;;;;;5.93;87.36;;;;;
2023/11/19 21:39:05;;;;;;;6.3;3.2;;;;;;;5.94;87.4;;;;;
2023/11/19 21:50:06;;;;;;;6.3;3.2;;;;;;;6.01;86.8;;;;;
2023/11/19 22:00:03;;;;;;;8.9;3.6;;;;;;;6.06;86.87;;;;;
2023/11/19 22:10:03;;;;;;;8.9;3.6;;;;;;;6.11;87.26;;;;;
2023/11/19 22:20:04;;;;;;;8.9;3.6;;;;;;;6.15;87.39;;;;;
2023/11/19 22:31:03;;;;;;;6.4;3.1;;;;;;;6.13;87.26;;;;;
2023/11/19 22:41:03;;;;;;;6.4;3.1;;;;;;;6.21;86.94;;;;;
2023/11/19 22:52:04;;;;;;;6.4;3.1;;;;;;;6.35;86.53;;;;;
2023/11/19 23:03:03;;;;;;;4.9;2.7;;;;;;;6.39;86.45;;;;;
2023/11/19 23:13:03;;;;;;;4.9;2.7;;;;;;;6.52;86.23;;;;;
2023/11/19 23:24:03;;;;;;;10.6;4.4;;;;;;;6.52;86.35;;;;;
2023/11/19 23:34:03;;;;;;;10.6;4.4;;;;;;;6.51;86.97;;;;;
2023/11/19 23:45:03;;;;;;;10.6;4.4;;;;;;;6.34;87.43;;;;;
2023/11/19 23:55:03;;;;;;;6;3.6;;;;;;;6.5;87.66;;;;;
